sensor_id;sensor_type;location;lat;lon;timestamp;P1;durP1;ratioP1;P2;durP2;ratioP2
65879;SDS011;52661;51.364;6.054;2023-01-30T00:00:58;19.25;;;7.65;;
65879;SDS011;52661;51.364;6.054;2023-01-30T00:03:25;21.40;;;6.72;;
65879;SDS011;52661;51.364;6.054;2023-01-30T00:05:51;12.68;;;5.32;;
65879;SDS011;52661;51.364;6.054;2023-01-30T00:08:17;17.55;;;6.60;;
65879;SDS011;52661;51.364;6.054;2023-01-30T00:10:43;17.23;;;6.30;;
65879;SDS011;52661;51.364;6.054;2023-01-30T00:13:10;17.52;;;6.53;;
65879;SDS011;52661;51.364;6.054;2023-01-30T00:15:36;8.63;;;4.25;;
65879;SDS011;52661;51.364;6.054;2023-01-30T00:18:01;16.40;;;5.82;;
65879;SDS011;52661;51.364;6.054;2023-01-30T00:20:27;17.15;;;5.97;;
65879;SDS011;52661;51.364;6.054;2023-01-30T00:22:52;21.80;;;7.03;;
65879;SDS011;52661;51.364;6.054;2023-01-30T00:25:17;15.37;;;6.13;;
65879;SDS011;52661;51.364;6.054;2023-01-30T00:27:43;13.30;;;4.85;;
65879;SDS011;52661;51.364;6.054;2023-01-30T00:30:08;7.63;;;3.43;;
65879;SDS011;52661;51.364;6.054;2023-01-30T00:32:34;19.83;;;7.43;;
65879;SDS011;52661;51.364;6.054;2023-01-30T00:34:59;24.88;;;7.75;;
65879;SDS011;52661;51.364;6.054;2023-01-30T00:37:24;13.37;;;5.80;;
65879;SDS011;52661;51.364;6.054;2023-01-30T00:39:50;21.45;;;9.07;;
65879;SDS011;52661;51.364;6.054;2023-01-30T00:42:15;8.40;;;3.75;;
65879;SDS011;52661;51.364;6.054;2023-01-30T00:44:59;23.83;;;9.75;;
65879;SDS011;52661;51.364;6.054;2023-01-30T00:47:43;20.25;;;7.18;;
65879;SDS011;52661;51.364;6.054;2023-01-30T00:50:09;14.80;;;5.00;;
65879;SDS011;52661;51.364;6.054;2023-01-30T00:52:35;13.35;;;5.57;;
65879;SDS011;52661;51.364;6.054;2023-01-30T00:55:00;19.77;;;7.50;;
65879;SDS011;52661;51.364;6.054;2023-01-30T00:57:26;14.77;;;6.57;;
65879;SDS011;52661;51.364;6.054;2023-01-30T00:59:51;16.67;;;7.83;;
65879;SDS011;52661;51.364;6.054;2023-01-30T01:02:16;14.50;;;4.50;;
65879;SDS011;52661;51.364;6.054;2023-01-30T01:04:41;19.67;;;7.80;;
65879;SDS011;52661;51.364;6.054;2023-01-30T01:07:08;18.17;;;6.18;;
65879;SDS011;52661;51.364;6.054;2023-01-30T01:09:34;17.88;;;5.75;;
65879;SDS011;52661;51.364;6.054;2023-01-30T01:11:59;22.10;;;8.23;;
65879;SDS011;52661;51.364;6.054;2023-01-30T01:14:25;12.10;;;5.50;;
65879;SDS011;52661;51.364;6.054;2023-01-30T01:16:50;12.55;;;6.00;;
65879;SDS011;52661;51.364;6.054;2023-01-30T01:19:15;11.47;;;4.67;;
65879;SDS011;52661;51.364;6.054;2023-01-30T01:21:41;12.75;;;5.45;;
65879;SDS011;52661;51.364;6.054;2023-01-30T01:24:08;16.40;;;6.20;;
65879;SDS011;52661;51.364;6.054;2023-01-30T01:26:37;17.77;;;6.10;;
65879;SDS011;52661;51.364;6.054;2023-01-30T01:29:02;16.65;;;5.70;;
65879;SDS011;52661;51.364;6.054;2023-01-30T01:31:28;16.92;;;6.65;;
65879;SDS011;52661;51.364;6.054;2023-01-30T01:33:53;18.13;;;8.45;;
65879;SDS011;52661;51.364;6.054;2023-01-30T01:36:19;11.70;;;4.83;;
65879;SDS011;52661;51.364;6.054;2023-01-30T01:38:44;21.95;;;8.55;;
65879;SDS011;52661;51.364;6.054;2023-01-30T01:41:10;15.20;;;6.82;;
65879;SDS011;52661;51.364;6.054;2023-01-30T01:43:38;13.32;;;4.95;;
65879;SDS011;52661;51.364;6.054;2023-01-30T01:46:35;14.20;;;4.85;;
65879;SDS011;52661;51.364;6.054;2023-01-30T01:49:27;16.75;;;5.70;;
65879;SDS011;52661;51.364;6.054;2023-01-30T01:54:40;12.67;;;5.77;;
65879;SDS011;52661;51.364;6.054;2023-01-30T01:57:25;17.75;;;7.43;;
65879;SDS011;52661;51.364;6.054;2023-01-30T02:00:06;21.45;;;8.18;;
65879;SDS011;52661;51.364;6.054;2023-01-30T02:02:35;14.95;;;6.07;;
65879;SDS011;52661;51.364;6.054;2023-01-30T02:05:03;12.82;;;5.95;;
65879;SDS011;52661;51.364;6.054;2023-01-30T02:07:35;16.67;;;6.47;;
65879;SDS011;52661;51.364;6.054;2023-01-30T02:10:22;9.43;;;4.40;;
65879;SDS011;52661;51.364;6.054;2023-01-30T02:12:52;12.52;;;4.40;;
65879;SDS011;52661;51.364;6.054;2023-01-30T02:15:17;17.17;;;5.57;;
65879;SDS011;52661;51.364;6.054;2023-01-30T02:17:43;19.02;;;6.57;;
65879;SDS011;52661;51.364;6.054;2023-01-30T02:36:40;19.33;;;8.50;;
65879;SDS011;52661;51.364;6.054;2023-01-30T02:42:43;19.25;;;6.25;;
65879;SDS011;52661;51.364;6.054;2023-01-30T02:45:05;19.73;;;7.40;;
65879;SDS011;52661;51.364;6.054;2023-01-30T02:47:37;19.17;;;6.45;;
65879;SDS011;52661;51.364;6.054;2023-01-30T02:50:26;14.90;;;5.60;;
65879;SDS011;52661;51.364;6.054;2023-01-30T02:52:58;14.82;;;5.05;;
65879;SDS011;52661;51.364;6.054;2023-01-30T02:55:25;12.05;;;4.72;;
65879;SDS011;52661;51.364;6.054;2023-01-30T02:57:52;13.82;;;5.35;;
65879;SDS011;52661;51.364;6.054;2023-01-30T03:00:25;17.90;;;5.15;;
65879;SDS011;52661;51.364;6.054;2023-01-30T03:05:44;18.17;;;7.05;;
65879;SDS011;52661;51.364;6.054;2023-01-30T03:11:06;16.38;;;6.53;;
65879;SDS011;52661;51.364;6.054;2023-01-30T03:16:17;18.02;;;7.15;;
65879;SDS011;52661;51.364;6.054;2023-01-30T03:18:55;16.48;;;6.97;;
65879;SDS011;52661;51.364;6.054;2023-01-30T03:21:23;18.60;;;8.02;;
65879;SDS011;52661;51.364;6.054;2023-01-30T03:23:48;13.27;;;5.47;;
65879;SDS011;52661;51.364;6.054;2023-01-30T03:26:18;21.97;;;7.97;;
65879;SDS011;52661;51.364;6.054;2023-01-30T03:28:47;14.07;;;5.22;;
65879;SDS011;52661;51.364;6.054;2023-01-30T03:31:14;13.40;;;5.15;;
65879;SDS011;52661;51.364;6.054;2023-01-30T03:33:39;14.32;;;5.63;;
65879;SDS011;52661;51.364;6.054;2023-01-30T03:36:05;14.50;;;4.88;;
65879;SDS011;52661;51.364;6.054;2023-01-30T03:38:30;15.23;;;6.75;;
65879;SDS011;52661;51.364;6.054;2023-01-30T03:40:56;20.17;;;6.80;;
65879;SDS011;52661;51.364;6.054;2023-01-30T03:43:21;16.77;;;7.07;;
65879;SDS011;52661;51.364;6.054;2023-01-30T03:45:46;17.60;;;7.50;;
65879;SDS011;52661;51.364;6.054;2023-01-30T03:48:11;12.20;;;5.37;;
65879;SDS011;52661;51.364;6.054;2023-01-30T03:50:37;15.17;;;6.27;;
65879;SDS011;52661;51.364;6.054;2023-01-30T03:53:02;13.57;;;5.60;;
65879;SDS011;52661;51.364;6.054;2023-01-30T03:55:27;12.23;;;5.30;;
65879;SDS011;52661;51.364;6.054;2023-01-30T03:57:53;18.97;;;6.30;;
65879;SDS011;52661;51.364;6.054;2023-01-30T04:00:22;14.85;;;5.97;;
65879;SDS011;52661;51.364;6.054;2023-01-30T04:02:47;14.07;;;5.72;;
65879;SDS011;52661;51.364;6.054;2023-01-30T04:05:13;14.63;;;5.40;;
65879;SDS011;52661;51.364;6.054;2023-01-30T04:07:38;14.27;;;5.05;;
65879;SDS011;52661;51.364;6.054;2023-01-30T04:10:03;11.25;;;3.92;;
65879;SDS011;52661;51.364;6.054;2023-01-30T04:12:29;16.13;;;5.93;;
65879;SDS011;52661;51.364;6.054;2023-01-30T04:14:54;19.07;;;6.07;;
65879;SDS011;52661;51.364;6.054;2023-01-30T04:17:20;11.70;;;4.37;;
65879;SDS011;52661;51.364;6.054;2023-01-30T04:19:45;13.13;;;5.90;;
65879;SDS011;52661;51.364;6.054;2023-01-30T04:22:10;7.70;;;3.43;;
65879;SDS011;52661;51.364;6.054;2023-01-30T04:24:36;9.93;;;3.50;;
65879;SDS011;52661;51.364;6.054;2023-01-30T04:27:01;13.50;;;5.17;;
65879;SDS011;52661;51.364;6.054;2023-01-30T04:29:26;16.37;;;7.07;;
65879;SDS011;52661;51.364;6.054;2023-01-30T04:31:52;18.97;;;6.40;;
65879;SDS011;52661;51.364;6.054;2023-01-30T04:34:17;12.77;;;4.97;;
65879;SDS011;52661;51.364;6.054;2023-01-30T04:36:42;14.25;;;5.72;;
65879;SDS011;52661;51.364;6.054;2023-01-30T04:39:08;12.70;;;3.97;;
65879;SDS011;52661;51.364;6.054;2023-01-30T04:41:33;16.43;;;5.20;;
65879;SDS011;52661;51.364;6.054;2023-01-30T04:43:58;12.43;;;5.77;;
65879;SDS011;52661;51.364;6.054;2023-01-30T04:46:24;18.83;;;7.10;;
65879;SDS011;52661;51.364;6.054;2023-01-30T04:48:49;8.38;;;2.63;;
65879;SDS011;52661;51.364;6.054;2023-01-30T04:51:14;12.37;;;4.57;;
65879;SDS011;52661;51.364;6.054;2023-01-30T04:53:39;10.77;;;4.38;;
65879;SDS011;52661;51.364;6.054;2023-01-30T04:56:05;10.93;;;4.20;;
65879;SDS011;52661;51.364;6.054;2023-01-30T04:58:31;11.43;;;5.03;;
65879;SDS011;52661;51.364;6.054;2023-01-30T05:01:10;10.60;;;3.97;;
65879;SDS011;52661;51.364;6.054;2023-01-30T05:03:37;10.05;;;4.22;;
65879;SDS011;52661;51.364;6.054;2023-01-30T05:06:02;13.10;;;5.83;;
65879;SDS011;52661;51.364;6.054;2023-01-30T05:08:27;8.80;;;4.13;;
65879;SDS011;52661;51.364;6.054;2023-01-30T05:10:53;10.90;;;4.53;;
65879;SDS011;52661;51.364;6.054;2023-01-30T05:13:18;10.03;;;4.20;;
65879;SDS011;52661;51.364;6.054;2023-01-30T05:15:43;7.70;;;3.35;;
65879;SDS011;52661;51.364;6.054;2023-01-30T05:18:09;8.97;;;4.00;;
65879;SDS011;52661;51.364;6.054;2023-01-30T05:20:34;10.30;;;3.80;;
65879;SDS011;52661;51.364;6.054;2023-01-30T05:22:59;9.67;;;3.60;;
65879;SDS011;52661;51.364;6.054;2023-01-30T05:25:25;11.33;;;5.30;;
65879;SDS011;52661;51.364;6.054;2023-01-30T05:27:50;11.53;;;4.87;;
65879;SDS011;52661;51.364;6.054;2023-01-30T05:30:15;12.02;;;5.53;;
65879;SDS011;52661;51.364;6.054;2023-01-30T05:32:41;11.77;;;4.60;;
65879;SDS011;52661;51.364;6.054;2023-01-30T05:35:06;13.87;;;5.77;;
65879;SDS011;52661;51.364;6.054;2023-01-30T05:37:32;10.93;;;4.53;;
65879;SDS011;52661;51.364;6.054;2023-01-30T05:39:57;9.00;;;3.93;;
65879;SDS011;52661;51.364;6.054;2023-01-30T05:42:22;9.37;;;4.40;;
65879;SDS011;52661;51.364;6.054;2023-01-30T05:44:48;7.47;;;3.05;;
65879;SDS011;52661;51.364;6.054;2023-01-30T05:47:13;10.93;;;4.83;;
65879;SDS011;52661;51.364;6.054;2023-01-30T05:49:38;11.23;;;4.60;;
65879;SDS011;52661;51.364;6.054;2023-01-30T05:52:04;13.97;;;5.03;;
65879;SDS011;52661;51.364;6.054;2023-01-30T05:54:29;9.55;;;4.15;;
65879;SDS011;52661;51.364;6.054;2023-01-30T05:56:54;10.05;;;4.82;;
65879;SDS011;52661;51.364;6.054;2023-01-30T05:59:20;8.50;;;3.73;;
65879;SDS011;52661;51.364;6.054;2023-01-30T06:01:45;11.23;;;4.57;;
65879;SDS011;52661;51.364;6.054;2023-01-30T06:04:10;10.80;;;4.17;;
65879;SDS011;52661;51.364;6.054;2023-01-30T06:06:36;15.38;;;5.13;;
65879;SDS011;52661;51.364;6.054;2023-01-30T06:09:01;11.70;;;4.93;;
65879;SDS011;52661;51.364;6.054;2023-01-30T06:11:27;14.80;;;6.30;;
65879;SDS011;52661;51.364;6.054;2023-01-30T06:13:52;13.75;;;5.50;;
65879;SDS011;52661;51.364;6.054;2023-01-30T06:16:18;16.65;;;5.13;;
65879;SDS011;52661;51.364;6.054;2023-01-30T06:18:43;15.93;;;6.18;;
65879;SDS011;52661;51.364;6.054;2023-01-30T06:21:11;11.95;;;5.53;;
65879;SDS011;52661;51.364;6.054;2023-01-30T06:23:37;14.43;;;4.95;;
65879;SDS011;52661;51.364;6.054;2023-01-30T06:26:02;10.65;;;3.63;;
65879;SDS011;52661;51.364;6.054;2023-01-30T06:28:28;12.75;;;5.93;;
65879;SDS011;52661;51.364;6.054;2023-01-30T06:30:53;11.57;;;4.80;;
65879;SDS011;52661;51.364;6.054;2023-01-30T06:33:19;18.55;;;5.75;;
65879;SDS011;52661;51.364;6.054;2023-01-30T06:35:46;14.52;;;4.45;;
65879;SDS011;52661;51.364;6.054;2023-01-30T06:40:38;7.50;;;3.28;;
65879;SDS011;52661;51.364;6.054;2023-01-30T06:43:04;16.75;;;6.38;;
65879;SDS011;52661;51.364;6.054;2023-01-30T06:45:30;15.48;;;5.40;;
65879;SDS011;52661;51.364;6.054;2023-01-30T06:47:55;17.13;;;5.07;;
65879;SDS011;52661;51.364;6.054;2023-01-30T06:50:23;11.48;;;4.65;;
65879;SDS011;52661;51.364;6.054;2023-01-30T06:52:50;9.93;;;4.15;;
65879;SDS011;52661;51.364;6.054;2023-01-30T06:55:18;11.00;;;5.38;;
65879;SDS011;52661;51.364;6.054;2023-01-30T06:57:45;15.48;;;5.38;;
65879;SDS011;52661;51.364;6.054;2023-01-30T07:00:12;10.25;;;4.65;;
65879;SDS011;52661;51.364;6.054;2023-01-30T07:02:39;16.50;;;6.47;;
65879;SDS011;52661;51.364;6.054;2023-01-30T07:05:05;13.88;;;4.82;;
65879;SDS011;52661;51.364;6.054;2023-01-30T07:07:32;15.52;;;4.18;;
65879;SDS011;52661;51.364;6.054;2023-01-30T07:09:58;9.98;;;4.82;;
65879;SDS011;52661;51.364;6.054;2023-01-30T07:12:24;17.65;;;5.00;;
65879;SDS011;52661;51.364;6.054;2023-01-30T07:14:50;12.73;;;4.97;;
65879;SDS011;52661;51.364;6.054;2023-01-30T07:17:16;12.88;;;5.18;;
65879;SDS011;52661;51.364;6.054;2023-01-30T07:19:42;12.10;;;5.53;;
65879;SDS011;52661;51.364;6.054;2023-01-30T07:22:08;5.70;;;2.70;;
65879;SDS011;52661;51.364;6.054;2023-01-30T07:24:33;8.95;;;3.78;;
65879;SDS011;52661;51.364;6.054;2023-01-30T07:26:59;9.63;;;4.10;;
65879;SDS011;52661;51.364;6.054;2023-01-30T07:29:24;9.07;;;3.83;;
65879;SDS011;52661;51.364;6.054;2023-01-30T07:31:50;12.83;;;5.47;;
65879;SDS011;52661;51.364;6.054;2023-01-30T07:34:15;5.43;;;2.70;;
65879;SDS011;52661;51.364;6.054;2023-01-30T07:36:40;8.73;;;3.33;;
65879;SDS011;52661;51.364;6.054;2023-01-30T07:39:06;10.93;;;3.93;;
65879;SDS011;52661;51.364;6.054;2023-01-30T07:41:33;17.00;;;3.83;;
65879;SDS011;52661;51.364;6.054;2023-01-30T07:43:59;10.55;;;3.17;;
65879;SDS011;52661;51.364;6.054;2023-01-30T07:46:24;7.53;;;3.17;;
65879;SDS011;52661;51.364;6.054;2023-01-30T07:48:50;10.90;;;3.25;;
65879;SDS011;52661;51.364;6.054;2023-01-30T07:51:15;7.13;;;2.63;;
65879;SDS011;52661;51.364;6.054;2023-01-30T07:53:40;7.97;;;2.67;;
65879;SDS011;52661;51.364;6.054;2023-01-30T07:56:06;14.27;;;3.40;;
65879;SDS011;52661;51.364;6.054;2023-01-30T07:58:35;11.82;;;2.38;;
65879;SDS011;52661;51.364;6.054;2023-01-30T08:01:00;9.05;;;2.20;;
65879;SDS011;52661;51.364;6.054;2023-01-30T08:03:26;10.15;;;2.28;;
65879;SDS011;52661;51.364;6.054;2023-01-30T08:05:51;8.00;;;1.92;;
65879;SDS011;52661;51.364;6.054;2023-01-30T08:08:18;8.88;;;1.30;;
65879;SDS011;52661;51.364;6.054;2023-01-30T08:10:43;5.75;;;1.17;;
65879;SDS011;52661;51.364;6.054;2023-01-30T08:13:08;7.00;;;1.80;;
65879;SDS011;52661;51.364;6.054;2023-01-30T08:15:34;7.03;;;1.88;;
65879;SDS011;52661;51.364;6.054;2023-01-30T08:17:59;5.70;;;1.20;;
65879;SDS011;52661;51.364;6.054;2023-01-30T08:20:25;8.88;;;1.73;;
65879;SDS011;52661;51.364;6.054;2023-01-30T08:22:51;5.93;;;1.10;;
65879;SDS011;52661;51.364;6.054;2023-01-30T08:25:17;4.90;;;0.80;;
65879;SDS011;52661;51.364;6.054;2023-01-30T08:27:42;8.80;;;1.03;;
65879;SDS011;52661;51.364;6.054;2023-01-30T08:30:08;6.90;;;1.13;;
65879;SDS011;52661;51.364;6.054;2023-01-30T08:32:34;4.80;;;1.15;;
65879;SDS011;52661;51.364;6.054;2023-01-30T08:35:00;4.83;;;1.17;;
65879;SDS011;52661;51.364;6.054;2023-01-30T08:37:25;4.10;;;0.90;;
65879;SDS011;52661;51.364;6.054;2023-01-30T08:39:50;7.50;;;1.15;;
65879;SDS011;52661;51.364;6.054;2023-01-30T08:42:16;5.20;;;1.00;;
65879;SDS011;52661;51.364;6.054;2023-01-30T08:44:41;7.10;;;1.67;;
65879;SDS011;52661;51.364;6.054;2023-01-30T08:47:06;11.00;;;1.50;;
65879;SDS011;52661;51.364;6.054;2023-01-30T08:49:32;7.80;;;0.73;;
65879;SDS011;52661;51.364;6.054;2023-01-30T08:51:57;5.30;;;0.67;;
65879;SDS011;52661;51.364;6.054;2023-01-30T08:54:22;7.43;;;1.58;;
65879;SDS011;52661;51.364;6.054;2023-01-30T08:56:48;8.53;;;1.03;;
65879;SDS011;52661;51.364;6.054;2023-01-30T08:59:13;6.97;;;1.27;;
65879;SDS011;52661;51.364;6.054;2023-01-30T09:01:38;7.22;;;0.77;;
65879;SDS011;52661;51.364;6.054;2023-01-30T09:04:04;5.18;;;0.85;;
65879;SDS011;52661;51.364;6.054;2023-01-30T09:06:29;12.52;;;0.88;;
65879;SDS011;52661;51.364;6.054;2023-01-30T09:08:55;5.65;;;0.95;;
65879;SDS011;52661;51.364;6.054;2023-01-30T09:11:20;4.73;;;0.80;;
65879;SDS011;52661;51.364;6.054;2023-01-30T09:13:45;8.10;;;1.23;;
65879;SDS011;52661;51.364;6.054;2023-01-30T09:16:11;8.45;;;1.40;;
65879;SDS011;52661;51.364;6.054;2023-01-30T09:18:40;7.13;;;1.25;;
65879;SDS011;52661;51.364;6.054;2023-01-30T09:21:07;3.50;;;0.68;;
65879;SDS011;52661;51.364;6.054;2023-01-30T09:23:34;7.50;;;1.10;;
65879;SDS011;52661;51.364;6.054;2023-01-30T09:26:00;10.70;;;0.93;;
65879;SDS011;52661;51.364;6.054;2023-01-30T09:28:26;3.90;;;1.08;;
65879;SDS011;52661;51.364;6.054;2023-01-30T09:30:51;8.65;;;1.48;;
65879;SDS011;52661;51.364;6.054;2023-01-30T09:33:17;8.40;;;1.37;;
65879;SDS011;52661;51.364;6.054;2023-01-30T09:35:47;5.15;;;0.63;;
65879;SDS011;52661;51.364;6.054;2023-01-30T09:38:13;8.60;;;0.85;;
65879;SDS011;52661;51.364;6.054;2023-01-30T09:40:40;9.25;;;0.70;;
65879;SDS011;52661;51.364;6.054;2023-01-30T09:46:05;7.47;;;1.75;;
65879;SDS011;52661;51.364;6.054;2023-01-30T09:48:52;5.03;;;0.90;;
65879;SDS011;52661;51.364;6.054;2023-01-30T09:54:32;6.90;;;0.57;;
65879;SDS011;52661;51.364;6.054;2023-01-30T09:59:46;12.05;;;0.65;;
65879;SDS011;52661;51.364;6.054;2023-01-30T10:02:23;7.65;;;0.75;;
65879;SDS011;52661;51.364;6.054;2023-01-30T10:04:55;7.03;;;0.70;;
65879;SDS011;52661;51.364;6.054;2023-01-30T10:07:25;7.00;;;0.80;;
65879;SDS011;52661;51.364;6.054;2023-01-30T10:30:51;14.85;;;1.45;;
65879;SDS011;52661;51.364;6.054;2023-01-30T10:33:25;7.45;;;1.00;;
65879;SDS011;52661;51.364;6.054;2023-01-30T10:36:03;6.28;;;1.33;;
65879;SDS011;52661;51.364;6.054;2023-01-30T10:44:01;7.78;;;0.90;;
65879;SDS011;52661;51.364;6.054;2023-01-30T10:49:14;11.70;;;1.35;;
65879;SDS011;52661;51.364;6.054;2023-01-30T11:05:44;6.22;;;1.05;;
65879;SDS011;52661;51.364;6.054;2023-01-30T11:08:32;5.53;;;1.40;;
65879;SDS011;52661;51.364;6.054;2023-01-30T11:10:59;9.07;;;0.98;;
65879;SDS011;52661;51.364;6.054;2023-01-30T11:13:28;7.07;;;0.68;;
65879;SDS011;52661;51.364;6.054;2023-01-30T11:16:01;7.43;;;0.77;;
65879;SDS011;52661;51.364;6.054;2023-01-30T11:18:29;9.20;;;0.70;;
65879;SDS011;52661;51.364;6.054;2023-01-30T11:21:00;9.75;;;1.52;;
65879;SDS011;52661;51.364;6.054;2023-01-30T11:23:47;6.57;;;0.55;;
65879;SDS011;52661;51.364;6.054;2023-01-30T11:26:16;4.15;;;0.60;;
65879;SDS011;52661;51.364;6.054;2023-01-30T11:28:43;7.10;;;0.95;;
65879;SDS011;52661;51.364;6.054;2023-01-30T11:31:28;4.30;;;0.43;;
65879;SDS011;52661;51.364;6.054;2023-01-30T11:33:58;6.28;;;0.63;;
65879;SDS011;52661;51.364;6.054;2023-01-30T11:38:56;6.57;;;1.30;;
65879;SDS011;52661;51.364;6.054;2023-01-30T11:41:29;10.80;;;1.35;;
65879;SDS011;52661;51.364;6.054;2023-01-30T11:44:01;6.55;;;0.65;;
65879;SDS011;52661;51.364;6.054;2023-01-30T11:46:29;10.02;;;1.15;;
65879;SDS011;52661;51.364;6.054;2023-01-30T11:49:00;5.72;;;0.65;;
65879;SDS011;52661;51.364;6.054;2023-01-30T11:51:28;4.18;;;0.45;;
65879;SDS011;52661;51.364;6.054;2023-01-30T11:53:58;7.32;;;0.82;;
65879;SDS011;52661;51.364;6.054;2023-01-30T11:59:35;8.65;;;0.60;;
65879;SDS011;52661;51.364;6.054;2023-01-30T12:04:34;4.95;;;0.55;;
65879;SDS011;52661;51.364;6.054;2023-01-30T12:07:17;6.57;;;1.73;;
65879;SDS011;52661;51.364;6.054;2023-01-30T12:09:46;6.68;;;1.17;;
65879;SDS011;52661;51.364;6.054;2023-01-30T12:23:25;3.53;;;0.52;;
65879;SDS011;52661;51.364;6.054;2023-01-30T12:25:59;6.32;;;0.65;;
65879;SDS011;52661;51.364;6.054;2023-01-30T12:28:42;5.95;;;0.73;;
65879;SDS011;52661;51.364;6.054;2023-01-30T12:34:06;6.72;;;0.93;;
65879;SDS011;52661;51.364;6.054;2023-01-30T12:39:25;6.38;;;0.80;;
65879;SDS011;52661;51.364;6.054;2023-01-30T12:44:48;3.17;;;1.02;;
65879;SDS011;52661;51.364;6.054;2023-01-30T12:55:41;5.75;;;1.55;;
65879;SDS011;52661;51.364;6.054;2023-01-30T12:58:15;6.28;;;0.80;;
65879;SDS011;52661;51.364;6.054;2023-01-30T13:03:22;8.40;;;0.63;;
65879;SDS011;52661;51.364;6.054;2023-01-30T13:06:19;5.55;;;0.52;;
65879;SDS011;52661;51.364;6.054;2023-01-30T13:11:54;10.95;;;0.98;;
65879;SDS011;52661;51.364;6.054;2023-01-30T13:14:33;8.35;;;1.17;;
65879;SDS011;52661;51.364;6.054;2023-01-30T13:22:26;8.98;;;1.10;;
65879;SDS011;52661;51.364;6.054;2023-01-30T13:25:03;7.95;;;1.63;;
65879;SDS011;52661;51.364;6.054;2023-01-30T13:27:36;7.70;;;0.80;;
65879;SDS011;52661;51.364;6.054;2023-01-30T13:30:04;5.47;;;0.63;;
65879;SDS011;52661;51.364;6.054;2023-01-30T13:32:36;2.40;;;0.43;;
65879;SDS011;52661;51.364;6.054;2023-01-30T13:35:05;3.55;;;0.82;;
65879;SDS011;52661;51.364;6.054;2023-01-30T13:37:39;6.88;;;1.13;;
65879;SDS011;52661;51.364;6.054;2023-01-30T13:40:14;6.70;;;1.02;;
65879;SDS011;52661;51.364;6.054;2023-01-30T13:42:52;10.52;;;1.45;;
65879;SDS011;52661;51.364;6.054;2023-01-30T13:45:23;9.43;;;0.82;;
65879;SDS011;52661;51.364;6.054;2023-01-30T13:53:25;8.05;;;1.67;;
65879;SDS011;52661;51.364;6.054;2023-01-30T13:58:33;9.63;;;0.93;;
65879;SDS011;52661;51.364;6.054;2023-01-30T14:01:08;7.15;;;1.60;;
65879;SDS011;52661;51.364;6.054;2023-01-30T14:03:36;7.00;;;1.05;;
65879;SDS011;52661;51.364;6.054;2023-01-30T14:06:08;7.50;;;0.50;;
65879;SDS011;52661;51.364;6.054;2023-01-30T14:08:57;7.07;;;1.50;;
65879;SDS011;52661;51.364;6.054;2023-01-30T14:16:47;9.95;;;1.05;;
65879;SDS011;52661;51.364;6.054;2023-01-30T14:19:32;9.63;;;0.82;;
65879;SDS011;52661;51.364;6.054;2023-01-30T14:22:02;8.15;;;1.05;;
65879;SDS011;52661;51.364;6.054;2023-01-30T14:24:40;7.97;;;0.80;;
65879;SDS011;52661;51.364;6.054;2023-01-30T14:27:20;4.72;;;0.93;;
65879;SDS011;52661;51.364;6.054;2023-01-30T14:34:40;5.50;;;1.25;;
65879;SDS011;52661;51.364;6.054;2023-01-30T14:39:52;6.53;;;0.65;;
65879;SDS011;52661;51.364;6.054;2023-01-30T14:44:56;8.05;;;0.85;;
65879;SDS011;52661;51.364;6.054;2023-01-30T14:47:30;5.05;;;0.70;;
65879;SDS011;52661;51.364;6.054;2023-01-30T14:49:56;8.32;;;1.38;;
65879;SDS011;52661;51.364;6.054;2023-01-30T14:55:04;6.35;;;0.47;;
65879;SDS011;52661;51.364;6.054;2023-01-30T14:57:31;5.43;;;0.57;;
65879;SDS011;52661;51.364;6.054;2023-01-30T14:59:59;8.48;;;0.80;;
65879;SDS011;52661;51.364;6.054;2023-01-30T15:02:34;8.13;;;1.08;;
65879;SDS011;52661;51.364;6.054;2023-01-30T15:05:15;9.15;;;1.77;;
65879;SDS011;52661;51.364;6.054;2023-01-30T15:16:00;10.32;;;0.90;;
65879;SDS011;52661;51.364;6.054;2023-01-30T15:21:33;5.70;;;0.82;;
65879;SDS011;52661;51.364;6.054;2023-01-30T15:32:28;7.65;;;0.52;;
65879;SDS011;52661;51.364;6.054;2023-01-30T15:34:56;10.88;;;1.45;;
65879;SDS011;52661;51.364;6.054;2023-01-30T15:42:41;10.75;;;1.15;;
65879;SDS011;52661;51.364;6.054;2023-01-30T15:50:34;5.43;;;0.85;;
65879;SDS011;52661;51.364;6.054;2023-01-30T15:53:00;7.55;;;0.52;;
65879;SDS011;52661;51.364;6.054;2023-01-30T15:55:33;8.20;;;1.08;;
65879;SDS011;52661;51.364;6.054;2023-01-30T15:58:04;6.43;;;0.85;;
65879;SDS011;52661;51.364;6.054;2023-01-30T16:00:36;4.13;;;0.90;;
65879;SDS011;52661;51.364;6.054;2023-01-30T16:03:10;10.02;;;0.57;;
65879;SDS011;52661;51.364;6.054;2023-01-30T16:05:44;5.88;;;0.88;;
65879;SDS011;52661;51.364;6.054;2023-01-30T16:08:17;8.35;;;1.20;;
65879;SDS011;52661;51.364;6.054;2023-01-30T16:10:45;6.63;;;0.38;;
65879;SDS011;52661;51.364;6.054;2023-01-30T16:13:10;8.13;;;1.08;;
65879;SDS011;52661;51.364;6.054;2023-01-30T16:15:47;5.60;;;0.77;;
65879;SDS011;52661;51.364;6.054;2023-01-30T16:18:21;13.35;;;1.17;;
65879;SDS011;52661;51.364;6.054;2023-01-30T16:20:52;9.98;;;1.02;;
65879;SDS011;52661;51.364;6.054;2023-01-30T16:23:30;11.25;;;1.23;;
65879;SDS011;52661;51.364;6.054;2023-01-30T16:26:01;11.75;;;1.10;;
65879;SDS011;52661;51.364;6.054;2023-01-30T16:28:28;9.27;;;0.73;;
65879;SDS011;52661;51.364;6.054;2023-01-30T16:30:56;6.85;;;1.10;;
65879;SDS011;52661;51.364;6.054;2023-01-30T16:33:23;8.50;;;0.80;;
65879;SDS011;52661;51.364;6.054;2023-01-30T16:35:49;6.90;;;0.90;;
65879;SDS011;52661;51.364;6.054;2023-01-30T16:38:22;6.90;;;0.77;;
65879;SDS011;52661;51.364;6.054;2023-01-30T16:41:01;6.45;;;1.02;;
65879;SDS011;52661;51.364;6.054;2023-01-30T16:43:26;7.07;;;0.73;;
65879;SDS011;52661;51.364;6.054;2023-01-30T16:50:48;7.85;;;1.38;;
65879;SDS011;52661;51.364;6.054;2023-01-30T16:53:29;9.50;;;0.98;;
65879;SDS011;52661;51.364;6.054;2023-01-30T16:56:01;16.00;;;1.13;;
65879;SDS011;52661;51.364;6.054;2023-01-30T16:58:32;10.77;;;1.70;;
65879;SDS011;52661;51.364;6.054;2023-01-30T17:00:59;8.20;;;0.80;;
65879;SDS011;52661;51.364;6.054;2023-01-30T17:03:28;7.38;;;1.67;;
65879;SDS011;52661;51.364;6.054;2023-01-30T17:05:58;10.45;;;1.48;;
65879;SDS011;52661;51.364;6.054;2023-01-30T17:11:04;10.48;;;0.90;;
65879;SDS011;52661;51.364;6.054;2023-01-30T17:13:39;6.57;;;0.82;;
65879;SDS011;52661;51.364;6.054;2023-01-30T17:19:01;11.45;;;1.58;;
65879;SDS011;52661;51.364;6.054;2023-01-30T17:21:27;8.65;;;1.05;;
65879;SDS011;52661;51.364;6.054;2023-01-30T17:24:00;9.55;;;1.25;;
65879;SDS011;52661;51.364;6.054;2023-01-30T17:26:27;10.65;;;1.08;;
65879;SDS011;52661;51.364;6.054;2023-01-30T17:28:54;8.38;;;1.15;;
65879;SDS011;52661;51.364;6.054;2023-01-30T17:31:19;6.83;;;0.70;;
65879;SDS011;52661;51.364;6.054;2023-01-30T17:33:45;11.20;;;1.02;;
65879;SDS011;52661;51.364;6.054;2023-01-30T17:36:27;14.15;;;1.27;;
65879;SDS011;52661;51.364;6.054;2023-01-30T17:38:54;21.63;;;1.75;;
65879;SDS011;52661;51.364;6.054;2023-01-30T17:41:22;5.43;;;1.05;;
65879;SDS011;52661;51.364;6.054;2023-01-30T17:43:50;7.20;;;0.82;;
65879;SDS011;52661;51.364;6.054;2023-01-30T17:46:16;5.40;;;0.90;;
65879;SDS011;52661;51.364;6.054;2023-01-30T17:48:41;6.47;;;1.52;;
65879;SDS011;52661;51.364;6.054;2023-01-30T17:51:08;13.18;;;1.67;;
65879;SDS011;52661;51.364;6.054;2023-01-30T17:53:36;11.25;;;0.98;;
65879;SDS011;52661;51.364;6.054;2023-01-30T17:56:01;19.17;;;3.25;;
65879;SDS011;52661;51.364;6.054;2023-01-30T17:58:27;4.93;;;0.82;;
65879;SDS011;52661;51.364;6.054;2023-01-30T18:00:52;8.33;;;0.43;;
65879;SDS011;52661;51.364;6.054;2023-01-30T18:03:17;9.80;;;0.70;;
65879;SDS011;52661;51.364;6.054;2023-01-30T18:05:43;15.98;;;1.60;;
65879;SDS011;52661;51.364;6.054;2023-01-30T18:08:09;6.07;;;1.20;;